Time;durP1;ratioP1;P1;durP2;ratioP2;P2;SDS_P1;SDS_P2;PMS_P1;PMS_P2;Temp;Humidity;BMP_temperature;BMP_pressure;BME280_temperature;BME280_humidity;BME280_pressure;Samples;Min_cycle;Max_cycle;Signal;HPM_P1;HPM_P2
2023/06/29 04:30:44;;;;;;;19.65;9.27;;;19.80;76.00;;;;;;5734693;23;20087;-81
2023/06/29 04:33:10;;;;;;;19.15;8.90;;;19.80;75.80;;;;;;4893290;29;20794;-80
2023/06/29 04:35:44;;;;;;;20.38;9.88;;;19.80;76.00;;;;;;4894667;29;20072;-80
2023/06/29 04:38:10;;;;;;;19.60;9.23;;;19.80;75.50;;;;;;4883917;29;20704;-79
2023/06/29 04:40:37;;;;;;;18.50;9.20;;;19.80;75.40;;;;;;4878580;29;20156;-80
2023/06/29 04:43:03;;;;;;;16.23;8.20;;;19.90;75.80;;;;;;4878382;29;20033;-79
2023/06/29 04:45:31;;;;;;;16.73;9.05;;;19.90;75.80;;;;;;4878888;29;20040;-80
2023/06/29 04:47:58;;;;;;;16.10;8.15;;;19.90;75.00;;;;;;4878537;29;20032;-77
2023/06/29 04:50:31;;;;;;;16.83;8.32;;;20.00;75.30;;;;;;4878271;29;20033;-77
2023/06/29 04:52:58;;;;;;;14.23;7.40;;;19.90;75.90;;;;;;4878449;29;20136;-79
2023/06/29 04:55:25;;;;;;;17.23;7.75;;;20.00;75.70;;;;;;4878388;29;20036;-78
2023/06/29 04:57:51;;;;;;;15.20;7.93;;;19.90;75.60;;;;;;4877852;29;20116;-77
2023/06/29 05:00:17;;;;;;;15.68;8.00;;;20.00;76.00;;;;;;4882413;29;20040;-81
2023/06/29 05:02:42;;;;;;;15.38;8.00;;;20.00;75.70;;;;;;4888876;29;20060;-79
2023/06/29 05:05:09;;;;;;;17.65;8.30;;;20.10;75.80;;;;;;4869519;29;20045;-79
2023/06/29 05:07:35;;;;;;;16.05;7.05;;;20.10;75.50;;;;;;4894559;29;20029;-79
2023/06/29 05:10:01;;;;;;;16.60;8.05;;;20.10;75.70;;;;;;4883878;29;20032;-80
2023/06/29 05:12:26;;;;;;;14.05;7.10;;;20.10;75.80;;;;;;4882829;29;20108;-79
2023/06/29 05:14:52;;;;;;;13.45;7.05;;;20.20;75.60;;;;;;4881798;29;20040;-78
2023/06/29 05:17:18;;;;;;;14.63;7.93;;;20.20;75.70;;;;;;4872695;29;20032;-79
2023/06/29 05:19:44;;;;;;;15.40;7.47;;;20.20;75.60;;;;;;4889697;29;20029;-80
2023/06/29 05:22:10;;;;;;;13.63;7.00;;;20.30;75.60;;;;;;4867958;29;20061;-77
2023/06/29 05:24:37;;;;;;;14.02;7.50;;;20.30;75.30;;;;;;4881524;29;20037;-78
2023/06/29 05:27:03;;;;;;;14.52;7.32;;;20.30;75.40;;;;;;4871617;29;20044;-76
2023/06/29 05:29:29;;;;;;;16.40;7.18;;;20.30;74.80;;;;;;4880721;29;20423;-77
2023/06/29 05:31:55;;;;;;;14.60;7.20;;;20.40;75.00;;;;;;4885505;29;20113;-77
2023/06/29 05:34:20;;;;;;;13.75;7.25;;;20.40;74.90;;;;;;4900044;29;20029;-77
2023/06/29 05:36:46;;;;;;;14.45;7.53;;;20.40;75.20;;;;;;4892101;29;20219;-77
2023/06/29 05:39:12;;;;;;;15.30;7.05;;;20.60;74.60;;;;;;4898154;29;20028;-77
2023/06/29 05:41:38;;;;;;;12.85;7.00;;;20.70;74.40;;;;;;4894173;29;20128;-79
2023/06/29 05:44:04;;;;;;;16.88;7.97;;;20.80;74.60;;;;;;4881448;29;20031;-80
2023/06/29 05:46:30;;;;;;;16.80;7.80;;;20.80;74.30;;;;;;4880237;29;20036;-79
2023/06/29 05:48:55;;;;;;;14.90;7.38;;;20.90;73.90;;;;;;4866941;29;20033;-79
2023/06/29 05:51:21;;;;;;;15.55;7.75;;;21.00;73.70;;;;;;4881382;29;20061;-79
2023/06/29 05:53:46;;;;;;;16.05;8.13;;;20.90;73.50;;;;;;4881408;29;20040;-78
2023/06/29 05:56:12;;;;;;;14.15;6.90;;;20.90;73.40;;;;;;4893130;29;20108;-79
2023/06/29 05:58:38;;;;;;;15.73;7.35;;;20.90;73.60;;;;;;4864236;29;20092;-79
2023/06/29 06:01:04;;;;;;;14.82;7.97;;;20.90;73.60;;;;;;4873229;29;20025;-78
2023/06/29 06:03:29;;;;;;;14.30;7.60;;;20.90;73.50;;;;;;4899375;29;20150;-79
2023/06/29 06:05:55;;;;;;;12.23;6.55;;;20.90;73.00;;;;;;4890804;29;20505;-78
2023/06/29 06:08:20;;;;;;;15.27;7.57;;;21.00;73.50;;;;;;4884156;29;20025;-78
2023/06/29 06:10:46;;;;;;;16.50;8.07;;;21.00;73.50;;;;;;4911835;29;20097;-78
2023/06/29 06:13:12;;;;;;;14.77;7.55;;;20.90;73.40;;;;;;4887472;29;20031;-78
2023/06/29 06:15:39;;;;;;;14.38;7.28;;;21.00;73.30;;;;;;4884108;29;20041;-78
2023/06/29 06:18:05;;;;;;;12.85;6.18;;;20.90;73.20;;;;;;4891299;29;20112;-78
2023/06/29 06:20:31;;;;;;;9.90;5.43;;;20.80;73.20;;;;;;4884377;29;20460;-78
2023/06/29 06:22:56;;;;;;;6.88;3.22;;;20.70;73.50;;;;;;4883751;29;20021;-79
2023/06/29 06:25:22;;;;;;;6.25;3.10;;;20.60;72.90;;;;;;4859333;29;20500;-78
2023/06/29 06:27:48;;;;;;;4.88;1.80;;;20.60;72.60;;;;;;4884465;29;20048;-78
2023/06/29 06:30:13;;;;;;;3.83;1.63;;;20.60;72.00;;;;;;4884315;29;20045;-78
2023/06/29 06:32:39;;;;;;;5.18;1.75;;;20.50;71.90;;;;;;4882400;29;20605;-78
2023/06/29 06:35:07;;;;;;;3.80;1.50;;;20.50;71.80;;;;;;4876122;29;20043;-78
2023/06/29 06:37:35;;;;;;;4.60;1.80;;;20.40;71.70;;;;;;4884142;29;20037;-78
2023/06/29 06:40:01;;;;;;;3.72;1.27;;;20.30;71.70;;;;;;4883706;29;20025;-78
2023/06/29 06:42:27;;;;;;;4.22;1.42;;;20.30;71.60;;;;;;4884352;29;20056;-78
2023/06/29 06:44:54;;;;;;;3.40;1.42;;;20.30;71.40;;;;;;4884600;29;20040;-79
2023/06/29 06:47:20;;;;;;;4.72;1.40;;;20.20;71.20;;;;;;4883812;29;20141;-78
2023/06/29 06:49:47;;;;;;;4.32;1.42;;;20.30;71.60;;;;;;4884112;29;20120;-78
2023/06/29 06:52:12;;;;;;;3.05;1.30;;;20.50;71.20;;;;;;4878967;29;20024;-77
2023/06/29 06:54:38;;;;;;;3.28;1.42;;;20.60;70.70;;;;;;4901783;29;20088;-76
2023/06/29 06:57:04;;;;;;;5.07;1.58;;;20.80;70.20;;;;;;4883765;29;20025;-74
2023/06/29 06:59:29;;;;;;;2.78;1.33;;;20.80;70.10;;;;;;4884951;29;20409;-75
2023/06/29 07:01:55;;;;;;;5.85;1.48;;;20.70;70.30;;;;;;4883624;29;20120;-76
2023/06/29 07:04:21;;;;;;;3.78;1.65;;;20.70;70.20;;;;;;4899611;29;20039;-77
2023/06/29 07:06:46;;;;;;;3.20;1.27;;;20.80;70.10;;;;;;4882175;29;20032;-76
2023/06/29 07:09:12;;;;;;;3.42;1.40;;;20.80;70.20;;;;;;4901846;29;20083;-76
2023/06/29 07:11:38;;;;;;;2.92;1.30;;;20.90;70.10;;;;;;4882432;29;20044;-77
2023/06/29 07:14:04;;;;;;;2.80;1.42;;;20.90;69.70;;;;;;4884807;29;20732;-77
2023/06/29 07:16:30;;;;;;;3.65;1.60;;;20.90;69.80;;;;;;4896612;29;20137;-77
2023/06/29 07:19:04;;;;;;;3.53;1.48;;;20.90;70.00;;;;;;4884519;29;20056;-77
2023/06/29 07:21:30;;;;;;;2.85;1.20;;;20.80;69.80;;;;;;4879329;29;20405;-77
2023/06/29 07:23:56;;;;;;;3.90;1.40;;;20.80;69.50;;;;;;4901739;29;20056;-77
2023/06/29 07:26:22;;;;;;;3.53;1.40;;;20.80;69.40;;;;;;4898329;29;20036;-77
2023/06/29 07:28:48;;;;;;;4.43;1.50;;;20.80;69.60;;;;;;4899527;29;20032;-76
2023/06/29 07:31:14;;;;;;;3.80;1.58;;;20.80;69.70;;;;;;4894390;29;20037;-77
2023/06/29 07:33:41;;;;;;;5.45;2.10;;;20.80;69.50;;;;;;4897317;29;20043;-77
2023/06/29 07:36:08;;;;;;;3.38;1.45;;;20.90;69.40;;;;;;4898992;29;20630;-77
2023/06/29 07:38:34;;;;;;;3.42;1.20;;;20.90;69.20;;;;;;4897157;29;20025;-77
2023/06/29 07:41:00;;;;;;;3.28;1.40;;;20.90;68.70;;;;;;4901564;29;20071;-77
2023/06/29 07:43:25;;;;;;;3.53;1.20;;;20.80;68.60;;;;;;4896681;29;20032;-77
2023/06/29 07:45:51;;;;;;;3.63;1.20;;;20.80;68.90;;;;;;4884146;29;20029;-77
2023/06/29 07:48:17;;;;;;;4.15;1.40;;;20.80;68.80;;;;;;4898508;29;20040;-77
2023/06/29 07:50:42;;;;;;;3.47;1.40;;;20.80;68.80;;;;;;4885355;29;20025;-77
2023/06/29 07:53:08;;;;;;;2.47;1.10;;;20.80;69.20;;;;;;4882054;29;20053;-77
2023/06/29 07:55:34;;;;;;;6.00;1.38;;;20.70;69.90;;;;;;4882535;29;20029;-77
2023/06/29 07:58:00;;;;;;;5.43;1.20;;;20.60;69.80;;;;;;4882786;29;20040;-77
2023/06/29 08:00:26;;;;;;;4.10;1.35;;;20.60;69.50;;;;;;4878457;29;20865;-78
2023/06/29 08:02:51;;;;;;;1.80;1.00;;;20.60;69.60;;;;;;4890699;29;20029;-78
2023/06/29 08:05:17;;;;;;;2.92;0.85;;;20.60;69.50;;;;;;4882792;29;20037;-77
2023/06/29 08:07:43;;;;;;;4.90;1.17;;;20.60;69.50;;;;;;4886289;29;20024;-78
2023/06/29 08:10:09;;;;;;;2.72;1.00;;;20.60;69.20;;;;;;4883450;29;20033;-77
2023/06/29 08:12:35;;;;;;;3.35;1.00;;;20.60;70.00;;;;;;4900736;29;20638;-78
2023/06/29 08:15:00;;;;;;;3.03;1.05;;;20.70;70.10;;;;;;4901045;29;20021;-78
2023/06/29 08:17:26;;;;;;;2.80;1.10;;;20.60;70.60;;;;;;4874361;29;20040;-78
2023/06/29 08:19:52;;;;;;;4.40;1.05;;;20.50;71.10;;;;;;4882571;29;20033;-78
2023/06/29 08:22:17;;;;;;;2.60;0.95;;;20.40;71.20;;;;;;4882333;29;20377;-78
2023/06/29 08:24:43;;;;;;;2.88;1.20;;;20.30;71.80;;;;;;4882303;29;20041;-78
2023/06/29 08:27:08;;;;;;;5.70;1.05;;;20.30;71.90;;;;;;4865477;29;20029;-78
2023/06/29 08:29:34;;;;;;;2.08;0.90;;;20.40;72.10;;;;;;4881250;29;20089;-77
2023/06/29 08:32:00;;;;;;;3.38;1.23;;;20.50;71.70;;;;;;4882298;29;20049;-79
2023/06/29 08:34:25;;;;;;;2.47;1.00;;;20.60;71.50;;;;;;4889648;29;20033;-79
2023/06/29 08:36:51;;;;;;;2.15;1.00;;;20.70;71.70;;;;;;4895526;29;20029;-76
2023/06/29 08:39:17;;;;;;;2.45;1.10;;;20.70;71.50;;;;;;4890694;29;20032;-75
2023/06/29 08:41:42;;;;;;;4.40;1.50;;;20.80;71.40;;;;;;4891918;29;20029;-76
2023/06/29 08:44:08;;;;;;;2.38;1.05;;;20.80;71.30;;;;;;4892044;29;20401;-77
2023/06/29 08:46:37;;;;;;;2.20;1.00;;;20.80;71.00;;;;;;4872454;29;20044;-76
2023/06/29 08:49:06;;;;;;;3.20;0.93;;;20.90;70.90;;;;;;4891058;29;20040;-76
2023/06/29 08:51:34;;;;;;;2.90;0.90;;;21.00;70.20;;;;;;4891360;29;20041;-76
2023/06/29 08:54:01;;;;;;;2.55;1.00;;;21.10;69.80;;;;;;4876412;29;20491;-76
2023/06/29 08:56:28;;;;;;;3.33;0.98;;;21.10;69.90;;;;;;4874493;29;20119;-76
2023/06/29 08:58:55;;;;;;;3.10;0.90;;;21.10;69.40;;;;;;4890631;29;20032;-76
2023/06/29 09:01:22;;;;;;;4.68;1.27;;;21.20;69.60;;;;;;4896513;29;20041;-76
2023/06/29 09:03:49;;;;;;;3.28;1.10;;;21.20;69.10;;;;;;4896712;29;20109;-77
2023/06/29 09:06:15;;;;;;;2.42;0.90;;;21.30;69.10;;;;;;4899219;29;20084;-78
2023/06/29 09:08:41;;;;;;;3.88;1.15;;;21.30;69.00;;;;;;4897360;29;20036;-77
2023/06/29 09:11:06;;;;;;;3.17;1.17;;;21.40;69.30;;;;;;4881748;29;20506;-78
2023/06/29 09:13:33;;;;;;;2.28;1.17;;;21.60;69.00;;;;;;4897275;29;20432;-82
2023/06/29 09:16:00;;;;;;;3.75;1.20;;;21.70;68.20;;;;;;4895472;29;20040;-81
2023/06/29 09:18:27;;;;;;;3.33;1.48;;;21.70;67.90;;;;;;4897675;29;20040;-81
2023/06/29 09:20:55;;;;;;;2.63;1.17;;;21.70;68.30;;;;;;4891014;29;20476;-84
2023/06/29 09:23:28;;;;;;;3.50;1.23;;;21.70;68.30;;;;;;4870088;29;20041;-84
2023/06/29 09:25:56;;;;;;;3.65;1.20;;;21.50;68.60;;;;;;4892738;29;20039;-85
2023/06/29 09:28:21;;;;;;;2.30;1.30;;;21.20;69.10;;;;;;4884798;29;20127;-86
2023/06/29 09:30:49;;;;;;;2.72;1.20;;;21.10;70.20;;;;;;4887591;29;20135;-84
2023/06/29 09:33:15;;;;;;;3.65;1.33;;;21.10;70.20;;;;;;4887913;29;20032;-85
2023/06/29 09:35:50;;;;;;;3.10;1.35;;;21.30;70.40;;;;;;4880223;29;20037;-82
2023/06/29 09:38:16;;;;;;;4.25;1.33;;;21.40;69.70;;;;;;4885962;29;20094;-85
2023/06/29 09:40:52;;;;;;;3.13;1.25;;;21.50;70.00;;;;;;4894867;29;20110;-85
2023/06/29 09:43:25;;;;;;;3.00;1.30;;;21.60;69.10;;;;;;4892248;29;20033;-86
2023/06/29 09:45:57;;;;;;;3.40;1.42;;;21.60;69.70;;;;;;4896269;29;20498;-85
2023/06/29 09:48:23;;;;;;;5.20;1.60;;;21.50;69.00;;;;;;4880483;29;20032;-85
2023/06/29 09:50:50;;;;;;;3.10;1.40;;;21.40;69.30;;;;;;4900893;29;20029;-85
2023/06/29 09:53:16;;;;;;;3.28;1.50;;;21.30;68.90;;;;;;4893956;29;20025;-81
2023/06/29 09:55:42;;;;;;;3.55;1.45;;;21.50;69.70;;;;;;4891644;29;20037;-83
2023/06/29 09:58:09;;;;;;;3.83;1.20;;;21.50;69.30;;;;;;4885988;29;20037;-79
2023/06/29 10:00:35;;;;;;;2.60;1.00;;;21.40;69.50;;;;;;4866382;29;20113;-82
2023/06/29 10:03:01;;;;;;;3.28;1.10;;;21.60;67.60;;;;;;4884804;29;20037;-81
2023/06/29 10:05:30;;;;;;;4.43;1.30;;;21.60;66.80;;;;;;4884367;29;20065;-81
2023/06/29 10:07:57;;;;;;;4.97;1.17;;;21.80;66.40;;;;;;4884897;29;20492;-81
2023/06/29 10:10:25;;;;;;;4.35;1.20;;;22.00;66.80;;;;;;4888463;29;20064;-80
2023/06/29 10:12:55;;;;;;;3.03;1.00;;;22.10;64.30;;;;;;4891485;29;20032;-80
2023/06/29 10:15:24;;;;;;;2.58;1.05;;;22.30;64.70;;;;;;4897913;29;20016;-80
2023/06/29 10:18:05;;;;;;;4.18;1.10;;;22.30;63.40;;;;;;4892002;29;20060;-76
2023/06/29 10:20:35;;;;;;;3.55;1.20;;;22.40;63.30;;;;;;4882587;29;20049;-79
2023/06/29 10:23:04;;;;;;;2.30;0.88;;;22.70;62.80;;;;;;4895527;29;20028;-80
2023/06/29 10:25:32;;;;;;;3.67;1.10;;;22.90;62.20;;;;;;4900379;29;20025;-79
2023/06/29 10:27:58;;;;;;;1.85;1.05;;;23.10;62.30;;;;;;4875233;29;20037;-80
2023/06/29 10:30:25;;;;;;;1.40;0.75;;;23.30;61.60;;;;;;4883831;29;20041;-79
2023/06/29 10:32:53;;;;;;;2.65;0.90;;;23.50;61.10;;;;;;4894404;29;20129;-80
2023/06/29 10:35:22;;;;;;;2.22;1.00;;;23.60;60.90;;;;;;4892981;29;20031;-80
2023/06/29 10:37:49;;;;;;;3.42;1.30;;;23.80;59.80;;;;;;4893425;29;20033;-79
2023/06/29 10:40:17;;;;;;;4.10;1.15;;;24.00;59.50;;;;;;4886386;29;20036;-80
2023/06/29 10:42:42;;;;;;;2.80;1.00;;;24.30;58.90;;;;;;4896552;29;20499;-81
2023/06/29 10:45:17;;;;;;;2.90;1.27;;;24.70;58.20;;;;;;4886011;29;20126;-79
2023/06/29 10:47:56;;;;;;;3.20;1.30;;;24.80;57.70;;;;;;4886196;29;20047;-82
2023/06/29 10:50:44;;;;;;;2.83;1.20;;;24.70;58.30;;;;;;4889219;29;20584;-82
2023/06/29 10:53:14;;;;;;;3.97;1.30;;;24.50;57.30;;;;;;4885572;29;20084;-76
2023/06/29 10:55:45;;;;;;;2.72;1.13;;;24.40;57.20;;;;;;4896333;29;20145;-84
2023/06/29 10:58:19;;;;;;;2.95;1.30;;;24.30;57.30;;;;;;4882036;29;20147;-78
2023/06/29 11:00:45;;;;;;;2.20;1.15;;;24.40;56.40;;;;;;4881886;29;20551;-79
2023/06/29 11:03:13;;;;;;;4.22;1.52;;;24.50;56.80;;;;;;4896448;29;20029;-80
2023/06/29 11:05:39;;;;;;;2.40;1.20;;;24.10;55.70;;;;;;4881031;29;20029;-80
2023/06/29 11:08:07;;;;;;;2.95;1.38;;;23.90;57.00;;;;;;4882961;29;20037;-80
2023/06/29 11:10:34;;;;;;;2.78;1.30;;;24.00;57.30;;;;;;4887859;29;20084;-80
2023/06/29 11:12:59;;;;;;;3.15;1.38;;;24.10;57.50;;;;;;4901103;29;20492;-80
2023/06/29 11:15:27;;;;;;;2.70;1.35;;;24.00;56.50;;;;;;4883788;29;20044;-80
2023/06/29 11:17:53;;;;;;;4.35;1.50;;;23.80;56.90;;;;;;4883160;29;20033;-83
2023/06/29 11:20:21;;;;;;;3.67;1.20;;;23.80;56.20;;;;;;4867122;29;20032;-81
2023/06/29 11:22:48;;;;;;;2.03;1.10;;;23.80;56.50;;;;;;4866996;29;20124;-76
2023/06/29 11:25:15;;;;;;;3.47;1.35;;;23.60;56.80;;;;;;4884726;29;20092;-76
2023/06/29 11:27:41;;;;;;;3.92;1.45;;;23.50;56.50;;;;;;4899988;29;20041;-76
2023/06/29 11:30:09;;;;;;;2.42;1.13;;;23.50;56.80;;;;;;4888698;29;20033;-77
2023/06/29 11:32:36;;;;;;;4.43;2.40;;;23.40;57.00;;;;;;4880611;29;20127;-75
2023/06/29 11:35:04;;;;;;;2.53;1.30;;;23.40;56.90;;;;;;4899153;29;20024;-75
2023/06/29 11:37:30;;;;;;;3.85;1.60;;;23.20;57.50;;;;;;4901736;29;20037;-75
2023/06/29 11:39:56;;;;;;;3.17;1.45;;;23.00;58.00;;;;;;4890716;29;20698;-75
2023/06/29 11:42:24;;;;;;;5.95;1.40;;;22.90;58.60;;;;;;4883473;29;20536;-74
2023/06/29 11:45:09;;;;;;;2.72;1.45;;;23.00;58.40;;;;;;4883048;29;20043;-77
2023/06/29 11:47:36;;;;;;;4.25;1.38;;;23.30;57.80;;;;;;4900522;29;20183;-79
2023/06/29 11:50:04;;;;;;;2.78;1.40;;;23.80;56.90;;;;;;4881289;29;20052;-77
2023/06/29 11:52:31;;;;;;;2.40;1.00;;;24.10;55.50;;;;;;4899048;29;20036;-78
2023/06/29 11:55:01;;;;;;;4.22;1.20;;;24.40;54.50;;;;;;4882369;29;20032;-79
2023/06/29 11:57:31;;;;;;;4.25;1.95;;;24.60;53.60;;;;;;4885390;29;20037;-81
2023/06/29 11:59:57;;;;;;;3.03;1.20;;;24.70;52.50;;;;;;4887506;29;20041;-84
2023/06/29 12:02:23;;;;;;;2.30;1.02;;;25.00;52.60;;;;;;4897047;29;20040;-75
2023/06/29 12:05:03;;;;;;;2.92;1.10;;;25.30;51.60;;;;;;4865221;29;20779;-83
2023/06/29 12:07:44;;;;;;;3.85;1.08;;;25.40;51.60;;;;;;4900213;29;20028;-78
2023/06/29 12:10:12;;;;;;;2.90;0.98;;;25.50;51.10;;;;;;4897237;29;20037;-78
2023/06/29 12:12:46;;;;;;;3.60;1.00;;;25.60;50.50;;;;;;4873986;29;20056;-77
2023/06/29 12:15:20;;;;;;;2.72;0.90;;;25.80;50.50;;;;;;4899003;29;20039;-78
2023/06/29 12:17:47;;;;;;;3.92;1.15;;;25.70;50.60;;;;;;4895644;29;20041;-78
2023/06/29 12:20:20;;;;;;;2.63;1.00;;;25.40;49.80;;;;;;4883038;29;20035;-78
2023/06/29 12:22:48;;;;;;;2.22;1.08;;;25.30;49.60;;;;;;4897038;29;20072;-78
2023/06/29 12:25:16;;;;;;;2.15;1.00;;;25.40;50.20;;;;;;4880188;29;20096;-78
2023/06/29 12:27:44;;;;;;;2.28;1.00;;;25.20;48.70;;;;;;4897352;29;20036;-78
2023/06/29 12:30:11;;;;;;;2.03;0.95;;;25.10;49.10;;;;;;4899860;29;20395;-79
2023/06/29 12:32:37;;;;;;;1.40;0.90;;;25.10;48.00;;;;;;4881822;29;20116;-78
2023/06/29 12:35:03;;;;;;;1.05;0.68;;;25.30;46.10;;;;;;4883272;29;20028;-78
2023/06/29 12:37:29;;;;;;;1.40;0.70;;;25.50;47.40;;;;;;4882606;29;20033;-78
2023/06/29 12:39:55;;;;;;;1.35;0.70;;;25.50;46.50;;;;;;4900472;29;20032;-78
2023/06/29 12:42:23;;;;;;;2.47;0.90;;;25.50;46.40;;;;;;4883333;29;20499;-78
2023/06/29 12:44:50;;;;;;;1.38;0.80;;;25.30;46.80;;;;;;4890171;29;20062;-77
2023/06/29 12:47:18;;;;;;;1.65;0.80;;;25.20;47.60;;;;;;4881657;29;20044;-78
2023/06/29 12:49:45;;;;;;;2.40;0.90;;;25.30;47.40;;;;;;4866720;29;20028;-78
2023/06/29 12:52:13;;;;;;;3.28;0.90;;;25.30;47.30;;;;;;4898153;29;20052;-77
2023/06/29 12:54:39;;;;;;;3.13;0.85;;;25.20;48.00;;;;;;4899975;29;20033;-77
2023/06/29 12:57:05;;;;;;;2.00;1.00;;;25.30;47.60;;;;;;4877759;29;20067;-78
2023/06/29 12:59:30;;;;;;;2.25;0.80;;;25.30;47.00;;;;;;4887429;29;20453;-77
2023/06/29 13:01:59;;;;;;;2.78;1.05;;;25.40;47.50;;;;;;4898708;29;20040;-77
2023/06/29 13:04:24;;;;;;;2.53;1.08;;;25.60;47.40;;;;;;4895075;29;20404;-77
2023/06/29 13:06:53;;;;;;;2.50;0.80;;;25.50;45.40;;;;;;4882428;29;20088;-77
2023/06/29 13:09:19;;;;;;;2.88;0.90;;;25.60;45.90;;;;;;4897360;29;20424;-77
2023/06/29 13:11:44;;;;;;;2.70;0.80;;;25.70;46.20;;;;;;4880033;29;20127;-79
2023/06/29 13:14:10;;;;;;;1.70;0.80;;;25.80;46.20;;;;;;4880927;29;20032;-80
2023/06/29 13:16:36;;;;;;;2.25;0.80;;;25.80;45.90;;;;;;4899030;29;20060;-80
2023/06/29 13:19:01;;;;;;;2.53;1.00;;;25.80;45.50;;;;;;4895464;29;20019;-80
2023/06/29 13:21:27;;;;;;;1.40;0.77;;;25.70;45.50;;;;;;4899504;29;20028;-80
2023/06/29 13:23:52;;;;;;;1.48;1.00;;;25.50;46.70;;;;;;4893205;29;20100;-81
2023/06/29 13:26:18;;;;;;;2.50;1.00;;;25.50;46.20;;;;;;4893338;29;20067;-80
2023/06/29 13:28:44;;;;;;;1.75;0.73;;;25.70;45.30;;;;;;4882669;29;20063;-81
2023/06/29 13:31:09;;;;;;;2.38;0.90;;;25.60;44.60;;;;;;4882661;29;20045;-80
2023/06/29 13:33:35;;;;;;;2.55;1.00;;;25.60;45.40;;;;;;4880623;29;20028;-81
2023/06/29 13:36:01;;;;;;;1.98;0.82;;;25.80;46.10;;;;;;4899503;29;20025;-81
2023/06/29 13:38:27;;;;;;;1.77;0.90;;;25.90;45.70;;;;;;4896813;29;20033;-80
2023/06/29 13:40:53;;;;;;;2.05;1.00;;;26.00;45.20;;;;;;4897085;29;20037;-80
2023/06/29 13:43:19;;;;;;;2.78;1.10;;;25.90;45.50;;;;;;4879137;29;20035;-80
2023/06/29 13:45:44;;;;;;;3.28;1.30;;;25.70;45.20;;;;;;4880863;29;20033;-80
2023/06/29 13:48:10;;;;;;;5.28;2.08;;;25.70;45.70;;;;;;4881453;29;20032;-80
2023/06/29 13:50:36;;;;;;;4.22;1.25;;;25.80;45.60;;;;;;4898689;29;20040;-80
2023/06/29 13:53:01;;;;;;;5.20;1.48;;;25.80;44.70;;;;;;4882323;29;20025;-80
2023/06/29 13:55:28;;;;;;;3.65;1.20;;;25.80;45.60;;;;;;4898389;29;20035;-81
2023/06/29 13:57:54;;;;;;;4.28;1.20;;;25.80;45.60;;;;;;4897499;29;20033;-81
2023/06/29 14:00:21;;;;;;;3.30;1.20;;;25.80;45.50;;;;;;4891922;29;20032;-80
2023/06/29 14:02:47;;;;;;;3.00;1.13;;;25.80;45.20;;;;;;4879303;29;20052;-80
2023/06/29 14:05:12;;;;;;;5.00;1.38;;;25.70;45.90;;;;;;4897243;29;20110;-80
2023/06/29 14:07:38;;;;;;;3.65;1.40;;;25.90;45.80;;;;;;4881698;29;20782;-80
2023/06/29 14:10:04;;;;;;;3.72;1.30;;;26.00;45.70;;;;;;4896122;29;20715;-80
2023/06/29 14:12:30;;;;;;;3.78;1.60;;;26.00;45.80;;;;;;4879723;29;20099;-80
2023/06/29 14:14:56;;;;;;;3.10;1.17;;;26.00;45.20;;;;;;4896792;29;20598;-80
2023/06/29 14:17:21;;;;;;;3.33;1.23;;;25.90;45.70;;;;;;4899167;29;20024;-80
2023/06/29 14:19:51;;;;;;;3.92;1.30;;;25.80;46.40;;;;;;4881573;29;20507;-79
2023/06/29 14:22:17;;;;;;;2.60;1.08;;;25.70;45.40;;;;;;4898837;29;20808;-80
2023/06/29 14:24:43;;;;;;;3.30;1.23;;;25.70;45.50;;;;;;4896043;29;20115;-80
2023/06/29 14:27:09;;;;;;;3.08;1.35;;;25.60;46.30;;;;;;4880903;29;20037;-80
2023/06/29 14:29:35;;;;;;;2.17;1.15;;;25.70;45.50;;;;;;4897721;29;20079;-81
2023/06/29 14:32:00;;;;;;;2.58;1.02;;;25.80;45.60;;;;;;4898481;29;20052;-80
2023/06/29 14:34:26;;;;;;;3.10;1.10;;;25.70;45.00;;;;;;4888653;29;20555;-80
2023/06/29 14:36:51;;;;;;;2.75;1.13;;;25.70;44.60;;;;;;4882951;29;20092;-80
2023/06/29 14:39:17;;;;;;;3.15;1.20;;;25.70;44.80;;;;;;4896947;29;20036;-79
2023/06/29 14:41:55;;;;;;;2.22;1.13;;;25.70;44.80;;;;;;4883967;29;20777;-80
2023/06/29 14:44:22;;;;;;;2.45;1.25;;;25.60;45.10;;;;;;4899509;29;20503;-80
2023/06/29 14:46:51;;;;;;;2.50;1.10;;;25.70;45.60;;;;;;4884654;29;20051;-80
2023/06/29 14:49:17;;;;;;;3.65;1.30;;;25.30;45.80;;;;;;4893596;29;20145;-80
2023/06/29 14:51:43;;;;;;;3.60;1.10;;;25.40;46.40;;;;;;4885516;29;20499;-79
2023/06/29 14:54:09;;;;;;;3.47;1.60;;;25.50;46.80;;;;;;4898406;29;20107;-80
2023/06/29 14:56:35;;;;;;;3.00;1.30;;;25.60;46.90;;;;;;4902102;29;20108;-80
2023/06/29 14:59:01;;;;;;;2.75;1.20;;;25.60;46.30;;;;;;4896997;29;20028;-81
2023/06/29 15:01:28;;;;;;;2.78;1.10;;;25.60;46.70;;;;;;4882373;29;20033;-80
2023/06/29 15:03:54;;;;;;;2.25;1.10;;;25.70;46.90;;;;;;4885441;29;20025;-79
2023/06/29 15:06:20;;;;;;;2.30;1.10;;;25.80;46.80;;;;;;4883860;29;20045;-80
2023/06/29 15:08:45;;;;;;;2.33;1.17;;;25.90;46.00;;;;;;4878250;29;20036;-80
2023/06/29 15:11:11;;;;;;;2.58;1.20;;;25.80;45.70;;;;;;4880001;29;20068;-77
2023/06/29 15:13:37;;;;;;;3.88;1.10;;;25.80;45.30;;;;;;4882961;29;20385;-80
2023/06/29 15:16:02;;;;;;;2.00;1.10;;;25.60;45.20;;;;;;4895791;29;20028;-82
2023/06/29 15:18:28;;;;;;;2.72;1.13;;;25.70;46.10;;;;;;4900653;29;20148;-82
2023/06/29 15:20:54;;;;;;;3.08;1.08;;;25.80;46.30;;;;;;4889516;29;20516;-79
2023/06/29 15:23:19;;;;;;;4.57;1.35;;;25.60;46.40;;;;;;4901559;29;20511;-78
2023/06/29 15:25:45;;;;;;;2.90;1.20;;;25.30;46.70;;;;;;4896014;29;20053;-79
2023/06/29 15:28:11;;;;;;;2.35;1.00;;;25.60;46.10;;;;;;4889178;29;20495;-78
2023/06/29 15:30:36;;;;;;;2.78;1.10;;;25.70;46.40;;;;;;4864414;29;20053;-77
2023/06/29 15:33:03;;;;;;;3.03;1.30;;;25.90;45.80;;;;;;4874939;29;20032;-77
2023/06/29 15:35:29;;;;;;;2.13;1.02;;;25.90;45.60;;;;;;4892631;29;20053;-77
2023/06/29 15:37:56;;;;;;;2.28;1.23;;;25.90;46.20;;;;;;4890145;29;20568;-77
2023/06/29 15:40:21;;;;;;;2.53;1.00;;;25.80;45.50;;;;;;4879345;29;20055;-78
2023/06/29 15:42:47;;;;;;;3.17;1.00;;;25.80;44.60;;;;;;4891315;29;20041;-77
2023/06/29 15:45:13;;;;;;;2.20;0.98;;;25.70;44.10;;;;;;4895899;29;20043;-77
2023/06/29 15:47:39;;;;;;;3.63;1.10;;;25.40;44.00;;;;;;4897280;29;20041;-77
2023/06/29 15:50:06;;;;;;;2.40;0.95;;;25.40;44.30;;;;;;4880337;29;20039;-77
2023/06/29 15:52:32;;;;;;;2.22;1.08;;;25.10;45.40;;;;;;4881693;29;20051;-78
2023/06/29 15:54:58;;;;;;;1.83;1.00;;;25.20;45.60;;;;;;4881729;29;20398;-77
2023/06/29 15:57:24;;;;;;;2.63;1.27;;;25.30;45.40;;;;;;4881802;29;20024;-76
2023/06/29 15:59:50;;;;;;;2.00;1.00;;;25.50;45.60;;;;;;4896333;29;20482;-77
2023/06/29 16:02:16;;;;;;;2.53;0.85;;;25.70;44.40;;;;;;4899971;29;20031;-77
2023/06/29 16:04:42;;;;;;;5.63;1.20;;;25.70;44.80;;;;;;4898012;29;20040;-77
2023/06/29 16:07:08;;;;;;;2.17;0.90;;;25.80;44.70;;;;;;4883644;29;20696;-76
2023/06/29 16:09:37;;;;;;;3.08;1.00;;;25.90;45.50;;;;;;4899155;29;20048;-77
2023/06/29 16:12:03;;;;;;;1.67;0.80;;;25.80;44.00;;;;;;4883327;29;20056;-75
2023/06/29 16:14:29;;;;;;;1.75;0.90;;;25.60;43.70;;;;;;4898687;29;20035;-77
2023/06/29 16:16:54;;;;;;;1.30;0.70;;;25.40;44.20;;;;;;4899213;29;20479;-76
2023/06/29 16:19:20;;;;;;;5.45;0.80;;;25.10;45.10;;;;;;4880236;29;20033;-78
2023/06/29 16:21:46;;;;;;;1.38;0.82;;;25.10;44.60;;;;;;4884040;29;20059;-76
2023/06/29 16:24:12;;;;;;;1.35;0.80;;;25.10;44.80;;;;;;4897748;29;20060;-75
2023/06/29 16:26:38;;;;;;;2.08;0.82;;;25.00;45.00;;;;;;4883312;29;20060;-76
2023/06/29 16:29:05;;;;;;;2.20;0.93;;;24.90;45.20;;;;;;4892668;29;20041;-75
2023/06/29 16:31:31;;;;;;;4.55;1.08;;;24.80;45.20;;;;;;4883277;29;20056;-76
2023/06/29 16:33:57;;;;;;;1.83;0.80;;;24.80;45.50;;;;;;4893160;29;20526;-75
2023/06/29 16:36:22;;;;;;;2.03;0.88;;;24.70;44.70;;;;;;4882415;29;20052;-76
2023/06/29 16:38:48;;;;;;;2.47;1.00;;;24.70;45.80;;;;;;4897551;29;20036;-75
2023/06/29 16:41:13;;;;;;;1.45;0.70;;;24.70;45.40;;;;;;4881947;29;20030;-76
2023/06/29 16:43:39;;;;;;;1.52;0.80;;;24.60;46.10;;;;;;4879802;29;20064;-76
2023/06/29 16:46:05;;;;;;;1.70;0.90;;;24.50;45.80;;;;;;4882299;29;20036;-76
2023/06/29 16:48:31;;;;;;;2.75;0.85;;;24.30;45.90;;;;;;4896348;29;20056;-76
2023/06/29 16:50:56;;;;;;;4.22;1.00;;;24.40;46.10;;;;;;4895975;29;20118;-76
2023/06/29 16:53:22;;;;;;;2.00;0.85;;;24.40;46.80;;;;;;4881582;29;20575;-75
2023/06/29 16:55:48;;;;;;;5.25;0.95;;;24.40;46.50;;;;;;4891930;29;20055;-76
2023/06/29 16:58:13;;;;;;;4.03;1.10;;;24.30;45.70;;;;;;4897669;29;20029;-75
2023/06/29 17:00:41;;;;;;;2.30;0.90;;;24.20;45.80;;;;;;4894037;29;20377;-76
2023/06/29 17:03:07;;;;;;;2.20;0.80;;;24.10;46.40;;;;;;4882197;29;20032;-76
2023/06/29 17:05:32;;;;;;;1.88;1.08;;;24.00;47.00;;;;;;4894439;29;20096;-75
2023/06/29 17:07:58;;;;;;;4.15;1.20;;;24.00;47.10;;;;;;4880583;29;20033;-75
2023/06/29 17:10:24;;;;;;;2.33;0.80;;;24.00;47.00;;;;;;4893717;29;20393;-76
2023/06/29 17:12:51;;;;;;;2.17;1.02;;;24.00;46.70;;;;;;4882993;29;20032;-76